createdAt,value
2022-08-28T00:00:54.124Z,16.97
2022-08-28T00:01:54.121Z,16.76
2022-08-28T00:02:54.146Z,16.54
2022-08-28T00:03:54.087Z,16.97
2022-08-28T00:04:54.130Z,16.76
2022-08-28T00:05:54.057Z,16.87
2022-08-28T00:06:54.043Z,17.29
2022-08-28T00:07:54.025Z,17.29
2022-08-28T00:08:54.013Z,17.08
2022-08-28T00:09:54.013Z,16.97
2022-08-28T00:10:53.984Z,17.19
2022-08-28T00:11:53.974Z,16.76
2022-08-28T00:12:53.964Z,16.87
2022-08-28T00:13:53.956Z,17.19
2022-08-28T00:14:53.944Z,17.08
2022-08-28T00:15:53.966Z,16.97
2022-08-28T00:16:53.906Z,16.97
2022-08-28T00:17:53.911Z,16.54
2022-08-28T00:18:53.876Z,16.87
2022-08-28T00:19:53.882Z,16.97
2022-08-28T00:20:53.857Z,17.19
2022-08-28T00:21:54.803Z,17.19
2022-08-28T00:22:53.830Z,16.65
2022-08-28T00:23:53.832Z,16.97
2022-08-28T00:24:55.651Z,16.87
2022-08-28T00:25:53.792Z,16.65
2022-08-28T00:26:53.771Z,17.40
2022-08-28T00:27:53.787Z,17.19
2022-08-28T00:28:53.751Z,16.76
2022-08-28T00:29:53.751Z,16.97
2022-08-28T00:30:53.796Z,16.87
2022-08-28T00:31:53.711Z,16.76
2022-08-28T00:32:53.716Z,17.08
2022-08-28T00:33:53.682Z,16.97
2022-08-28T00:34:53.685Z,16.97
2022-08-28T00:35:53.662Z,16.65
2022-08-28T00:36:53.649Z,16.87
2022-08-28T00:37:53.633Z,16.97
2022-08-28T00:38:53.622Z,16.65
2022-08-28T00:39:53.650Z,17.08
2022-08-28T00:40:53.866Z,16.97
2022-08-28T00:41:57.843Z,16.97
2022-08-28T00:42:53.556Z,16.97
2022-08-28T00:43:54.512Z,16.87
2022-08-28T00:44:53.552Z,16.87
2022-08-28T00:45:53.600Z,16.65
2022-08-28T00:46:53.628Z,17.19
2022-08-28T00:47:53.506Z,16.87
2022-08-28T00:48:53.486Z,17.29
2022-08-28T00:49:53.490Z,17.29
2022-08-28T00:50:53.458Z,16.76
2022-08-28T00:51:53.448Z,16.65
2022-08-28T00:52:53.436Z,16.76
2022-08-28T00:53:56.769Z,17.40
2022-08-28T00:54:59.384Z,17.29
2022-08-28T00:55:54.401Z,17.08
2022-08-28T00:56:53.385Z,16.97
2022-08-28T00:57:53.362Z,16.97
2022-08-28T00:58:53.356Z,17.08
2022-08-28T00:59:53.345Z,16.76
2022-08-28T01:00:53.322Z,17.08
2022-08-28T01:01:53.361Z,17.29
2022-08-28T01:02:53.411Z,16.65
2022-08-28T01:03:53.301Z,17.29
2022-08-28T01:04:53.302Z,16.97
2022-08-28T01:05:53.265Z,16.65
2022-08-28T01:06:53.275Z,16.65
2022-08-28T01:07:53.243Z,16.87
2022-08-28T01:08:53.214Z,16.97
2022-08-28T01:09:53.218Z,17.08
2022-08-28T01:10:53.185Z,17.08
2022-08-28T01:11:53.428Z,16.97
2022-08-28T01:12:53.166Z,16.76
2022-08-28T01:13:53.161Z,16.76
2022-08-28T01:14:53.145Z,16.54
2022-08-28T01:15:53.167Z,16.87
2022-08-28T01:16:53.116Z,16.87
2022-08-28T01:17:53.097Z,16.76
2022-08-28T01:18:53.091Z,16.65
2022-08-28T01:19:53.094Z,16.65
2022-08-28T01:20:53.058Z,16.97
2022-08-28T01:21:54.002Z,17.08
2022-08-28T01:22:53.039Z,16.87
2022-08-28T01:23:53.047Z,16.97
2022-08-28T01:24:53.038Z,16.76
2022-08-28T01:25:53.005Z,16.76
2022-08-28T01:26:52.980Z,16.76
2022-08-28T01:27:52.971Z,16.76
2022-08-28T01:28:52.952Z,16.76
2022-08-28T01:29:52.951Z,16.87
2022-08-28T01:30:53.039Z,16.76
2022-08-28T01:31:52.910Z,16.76
2022-08-28T01:32:52.899Z,17.29
2022-08-28T01:33:53.133Z,17.08
2022-08-28T01:34:52.891Z,17.08
2022-08-28T01:35:52.868Z,16.76
2022-08-28T01:36:52.847Z,17.19
2022-08-28T01:37:52.833Z,17.08
2022-08-28T01:40:02.074Z,16.87
2022-08-28T01:41:02.020Z,17.19
2022-08-28T01:42:01.999Z,16.97
2022-08-28T01:43:01.971Z,17.19
2022-08-28T01:44:01.970Z,17.29
2022-08-28T01:45:01.970Z,17.08
2022-08-28T01:46:02.040Z,16.54
2022-08-28T01:47:01.918Z,16.87
2022-08-28T01:48:01.911Z,17.29
2022-08-28T01:49:01.888Z,16.87
2022-08-28T01:50:01.910Z,17.19
2022-08-28T01:51:01.874Z,16.97
2022-08-28T01:52:03.405Z,17.19
2022-08-28T01:53:01.839Z,17.08
2022-08-28T01:54:01.872Z,17.19
2022-08-28T01:55:01.815Z,17.19
2022-08-28T01:56:01.804Z,16.97
2022-08-28T01:57:01.785Z,17.19
2022-08-28T01:58:01.785Z,17.19
2022-08-28T01:59:02.008Z,16.97
2022-08-28T02:00:01.766Z,17.19
2022-08-28T02:01:01.745Z,17.19
2022-08-28T02:02:01.771Z,17.08
2022-08-28T02:03:01.706Z,17.08
2022-08-28T02:04:01.788Z,17.51
2022-08-28T02:05:01.684Z,16.97
2022-08-28T02:06:01.670Z,17.08
2022-08-28T02:07:01.659Z,17.19
2022-08-28T02:08:01.641Z,16.87
2022-08-28T02:09:01.640Z,16.97
2022-08-28T02:10:01.620Z,17.29
2022-08-28T02:11:01.602Z,16.65
2022-08-28T02:12:01.602Z,17.29
2022-08-28T02:13:01.576Z,16.65
2022-08-28T02:14:01.580Z,16.65
2022-08-28T02:15:01.554Z,15.90
2022-08-28T02:16:01.572Z,16.22
2022-08-28T02:17:01.533Z,15.79
2022-08-28T02:18:01.553Z,15.79
2022-08-28T02:19:02.462Z,15.68
2022-08-28T02:20:01.526Z,15.58
2022-08-28T02:21:01.703Z,15.68
2022-08-28T02:22:01.460Z,15.68
2022-08-28T02:23:01.435Z,15.04
2022-08-28T02:24:01.435Z,15.68
2022-08-28T02:25:01.424Z,15.68
2022-08-28T02:26:01.405Z,15.68
2022-08-28T02:27:01.405Z,15.68
2022-08-28T02:28:01.383Z,15.58
2022-08-28T02:29:01.376Z,15.58
2022-08-28T02:30:01.371Z,15.68
2022-08-28T02:31:01.365Z,15.58
2022-08-28T02:32:01.326Z,15.58
2022-08-28T02:33:01.313Z,15.68
2022-08-28T02:34:01.308Z,15.25
2022-08-28T02:35:01.295Z,15.04
2022-08-28T02:36:01.269Z,15.36
2022-08-28T02:37:01.286Z,15.25
2022-08-28T02:38:01.246Z,15.04
2022-08-28T02:39:01.238Z,15.79
2022-08-28T02:40:01.254Z,15.68
2022-08-28T02:41:01.201Z,15.79
2022-08-28T02:42:01.199Z,15.79
2022-08-28T02:43:01.407Z,15.04
2022-08-28T02:44:01.162Z,15.68
2022-08-28T02:45:01.152Z,15.79
2022-08-28T02:46:01.206Z,15.90
2022-08-28T02:47:01.128Z,15.36
2022-08-28T02:48:01.113Z,15.58
2022-08-28T02:49:01.103Z,15.58
2022-08-28T02:50:01.073Z,15.36
2022-08-28T02:51:01.059Z,15.68
2022-08-28T02:52:01.054Z,14.93
2022-08-28T02:53:01.035Z,15.25
2022-08-28T02:54:01.029Z,15.47
2022-08-28T02:55:01.001Z,15.68
2022-08-28T02:56:01.024Z,15.36
2022-08-28T02:57:01.203Z,15.47
2022-08-28T02:58:00.977Z,15.79
2022-08-28T02:59:00.962Z,15.15
2022-08-28T03:00:00.938Z,15.47
2022-08-28T03:01:00.934Z,15.47
2022-08-28T03:02:00.907Z,15.15
2022-08-28T03:03:00.928Z,15.47
2022-08-28T03:04:00.889Z,15.47
2022-08-28T03:05:00.871Z,15.90
2022-08-28T03:06:01.845Z,15.90
2022-08-28T03:07:00.839Z,16.01
2022-08-28T03:08:00.830Z,15.68
2022-08-28T03:09:00.827Z,15.47
2022-08-28T03:10:01.046Z,15.79
2022-08-28T03:11:00.792Z,15.79
2022-08-28T03:12:00.790Z,15.79
2022-08-28T03:13:00.751Z,15.58
2022-08-28T03:14:00.762Z,15.15
2022-08-28T03:15:00.742Z,15.58
2022-08-28T03:16:00.732Z,15.79
2022-08-28T03:17:01.735Z,15.58
2022-08-28T03:18:00.694Z,15.58
2022-08-28T03:19:00.700Z,15.79
2022-08-28T03:20:00.672Z,15.25
2022-08-28T03:21:00.655Z,15.68
2022-08-28T03:22:01.589Z,15.68
2022-08-28T03:23:00.624Z,15.47
2022-08-28T03:24:00.626Z,15.15
2022-08-28T03:25:00.595Z,15.79
2022-08-28T03:26:00.585Z,15.15
2022-08-28T03:27:00.575Z,15.47
2022-08-28T03:28:00.569Z,15.25
2022-08-28T03:29:00.546Z,15.04
2022-08-28T03:30:00.528Z,15.79
2022-08-28T03:31:00.571Z,15.68
2022-08-28T03:32:00.516Z,15.58
2022-08-28T03:33:00.717Z,15.47
2022-08-28T03:34:00.487Z,15.15
2022-08-28T03:35:00.456Z,15.68
2022-08-28T03:36:00.710Z,15.25
2022-08-28T03:37:00.720Z,15.36
2022-08-28T03:38:00.432Z,15.68
2022-08-28T03:39:00.410Z,15.58
2022-08-28T03:40:00.480Z,15.47
2022-08-28T03:41:00.398Z,15.68
2022-08-28T03:42:00.631Z,15.47
2022-08-28T03:43:00.349Z,15.68
2022-08-28T03:44:00.342Z,15.15
2022-08-28T03:45:00.326Z,15.25
2022-08-28T03:46:00.377Z,15.15
2022-08-28T03:47:00.321Z,15.68
2022-08-28T03:48:01.266Z,15.25
2022-08-28T03:49:00.294Z,14.93
2022-08-28T03:50:00.270Z,15.47
2022-08-28T03:51:00.245Z,15.36
2022-08-28T03:52:00.232Z,15.04
2022-08-28T03:53:00.220Z,15.68
2022-08-28T03:54:00.236Z,15.68
2022-08-28T03:55:00.224Z,15.36
2022-08-28T03:56:00.176Z,15.25
2022-08-28T03:57:00.167Z,15.58
2022-08-28T03:58:00.166Z,15.47
2022-08-28T03:59:00.170Z,15.68
2022-08-28T04:00:00.146Z,15.47
2022-08-28T04:01:00.199Z,15.04
2022-08-28T04:02:00.108Z,15.25
2022-08-28T04:03:00.171Z,15.68
2022-08-28T04:04:00.058Z,15.58
2022-08-28T04:05:00.056Z,15.58
2022-08-28T04:06:00.069Z,15.58
2022-08-28T04:07:00.035Z,15.58
2022-08-28T04:08:00.021Z,15.04
2022-08-28T04:09:00.476Z,15.68
2022-08-28T04:09:59.980Z,15.68
2022-08-28T04:10:59.975Z,15.68
2022-08-28T04:11:59.969Z,15.36
2022-08-28T04:12:59.969Z,15.58
2022-08-28T04:13:59.932Z,15.68
2022-08-28T04:14:59.919Z,15.25
2022-08-28T04:15:59.903Z,15.25
2022-08-28T04:17:01.581Z,15.47
2022-08-28T04:17:59.883Z,15.79
2022-08-28T04:18:59.884Z,15.15
2022-08-28T04:19:59.844Z,15.68
2022-08-28T04:20:59.845Z,15.36
2022-08-28T04:21:59.815Z,15.58
2022-08-28T04:23:00.375Z,15.58
2022-08-28T04:23:59.812Z,15.58
2022-08-28T04:24:59.779Z,15.47
2022-08-28T04:25:59.775Z,15.68
2022-08-28T04:26:59.763Z,15.68
2022-08-28T04:27:59.745Z,15.47
2022-08-28T04:28:59.728Z,15.68
2022-08-28T04:29:59.707Z,15.68
2022-08-28T04:30:59.697Z,15.68
2022-08-28T04:31:59.761Z,15.15
2022-08-28T04:32:59.687Z,15.68
2022-08-28T04:33:59.657Z,15.47
2022-08-28T04:34:59.661Z,15.15
2022-08-28T04:35:59.628Z,15.68
2022-08-28T04:36:59.619Z,15.04
2022-08-28T04:37:59.620Z,15.47
2022-08-28T04:38:59.849Z,15.68
2022-08-28T04:39:59.612Z,15.68
2022-08-28T04:40:59.571Z,15.25
2022-08-28T04:41:59.552Z,15.25
2022-08-28T04:42:59.547Z,15.68
2022-08-28T04:43:59.523Z,15.15
2022-08-28T04:44:59.541Z,15.68
2022-08-28T04:45:59.531Z,15.58
2022-08-28T04:46:59.500Z,15.15
2022-08-28T04:48:00.177Z,15.58
2022-08-28T04:48:59.493Z,15.25
2022-08-28T04:49:59.441Z,15.25
2022-08-28T04:50:59.424Z,15.15
2022-08-28T04:51:59.404Z,15.15
2022-08-28T04:52:59.441Z,15.15
2022-08-28T04:53:59.396Z,15.58
2022-08-28T04:54:59.395Z,15.47
2022-08-28T04:55:59.358Z,15.58
2022-08-28T04:56:59.356Z,14.93
2022-08-28T04:57:59.353Z,15.04
2022-08-28T04:58:59.327Z,15.25
2022-08-28T04:59:59.308Z,15.47
2022-08-28T05:00:59.359Z,15.47
2022-08-28T05:01:59.331Z,15.58
2022-08-28T05:02:59.275Z,15.25
2022-08-28T05:03:59.258Z,15.36
2022-08-28T05:04:59.254Z,15.25
2022-08-28T05:05:59.221Z,15.58
2022-08-28T05:06:59.209Z,15.68
2022-08-28T05:07:59.207Z,15.36
2022-08-28T05:08:59.182Z,15.58
2022-08-28T05:09:59.159Z,15.79
2022-08-28T05:10:59.150Z,15.47
2022-08-28T05:11:59.139Z,15.47
2022-08-28T05:12:59.136Z,15.58
2022-08-28T05:13:59.111Z,15.58
2022-08-28T05:14:59.127Z,15.58
2022-08-28T05:15:59.118Z,15.25
2022-08-28T05:16:59.079Z,15.58
2022-08-28T05:17:59.376Z,15.25
2022-08-28T05:18:59.053Z,15.04
2022-08-28T05:19:59.031Z,15.90
2022-08-28T05:20:59.013Z,15.68
2022-08-28T05:21:58.994Z,15.15
2022-08-28T05:22:59.009Z,15.58
2022-08-28T05:23:58.980Z,15.15
2022-08-28T05:24:58.965Z,15.79
2022-08-28T05:25:58.943Z,15.15
2022-08-28T05:26:58.932Z,15.47
2022-08-28T05:27:58.997Z,15.58
2022-08-28T05:28:58.917Z,15.68
2022-08-28T05:30:01.935Z,15.58
2022-08-28T05:30:58.887Z,15.58
2022-08-28T05:31:59.171Z,15.79
2022-08-28T05:32:58.866Z,15.58
2022-08-28T05:33:58.838Z,15.15
2022-08-28T05:34:58.840Z,15.47
2022-08-28T05:35:58.809Z,15.68
2022-08-28T05:36:58.799Z,15.15
2022-08-28T05:37:58.878Z,15.15
2022-08-28T05:38:58.780Z,15.68
2022-08-28T05:39:59.757Z,15.15
2022-08-28T05:40:58.745Z,15.68
2022-08-28T05:41:58.742Z,15.36
2022-08-28T05:42:58.712Z,15.58
2022-08-28T05:43:58.699Z,15.15
2022-08-28T05:44:58.689Z,15.25
2022-08-28T05:45:58.705Z,15.68
2022-08-28T05:46:58.674Z,15.47
2022-08-28T05:47:58.653Z,15.58
2022-08-28T05:48:58.636Z,15.25
2022-08-28T05:49:58.623Z,15.36
2022-08-28T05:50:58.612Z,15.58
2022-08-28T05:51:58.604Z,15.68
2022-08-28T05:52:58.581Z,15.68
2022-08-28T05:53:58.587Z,15.58
2022-08-28T05:54:58.555Z,15.25
2022-08-28T05:55:58.545Z,15.36
2022-08-28T05:56:58.534Z,15.47
2022-08-28T05:57:58.506Z,15.58
2022-08-28T05:58:58.504Z,15.68
2022-08-28T05:59:58.489Z,15.25
2022-08-28T06:00:58.467Z,15.58
2022-08-28T06:02:02.213Z,15.25
2022-08-28T06:02:59.458Z,15.47
2022-08-28T06:03:58.506Z,15.58
2022-08-28T06:04:58.418Z,15.68
2022-08-28T06:05:58.407Z,15.04
2022-08-28T06:06:58.407Z,15.47
2022-08-28T06:07:58.388Z,15.47
2022-08-28T06:08:59.232Z,15.04
2022-08-28T06:09:58.359Z,15.25
2022-08-28T06:10:58.338Z,15.58
2022-08-28T06:11:58.330Z,15.47
2022-08-28T06:12:58.333Z,15.58
2022-08-28T06:13:58.303Z,15.68
2022-08-28T06:14:58.282Z,15.25
2022-08-28T06:15:58.310Z,15.25
2022-08-28T06:16:58.282Z,15.47
2022-08-28T06:17:58.238Z,15.25
2022-08-28T06:18:58.234Z,15.68
2022-08-28T06:19:59.173Z,15.68
2022-08-28T06:20:58.224Z,15.68
2022-08-28T06:21:58.195Z,15.15
2022-08-28T06:22:58.175Z,15.68
2022-08-28T06:23:58.184Z,15.68
2022-08-28T06:24:58.162Z,15.68
2022-08-28T06:25:58.135Z,15.25
2022-08-28T06:26:58.595Z,15.58
2022-08-28T06:27:58.199Z,15.25
2022-08-28T06:28:58.107Z,15.58
2022-08-28T06:29:58.093Z,15.58
2022-08-28T06:31:18.413Z,15.58
2022-08-28T06:31:59.179Z,15.15
2022-08-28T06:32:58.049Z,15.58
2022-08-28T06:33:58.030Z,15.58
2022-08-28T06:34:58.018Z,15.47
2022-08-28T06:35:58.006Z,15.58
2022-08-28T06:36:57.996Z,15.79
2022-08-28T06:37:57.969Z,15.36
2022-08-28T06:38:57.971Z,15.25
2022-08-28T06:39:58.183Z,15.25
2022-08-28T06:40:57.940Z,15.58
2022-08-28T06:41:57.941Z,15.25
2022-08-28T06:42:57.921Z,15.04
2022-08-28T06:43:57.918Z,15.04
2022-08-28T06:44:58.836Z,15.58
2022-08-28T06:45:57.931Z,15.36
2022-08-28T06:46:57.864Z,15.68
2022-08-28T06:47:57.862Z,15.68
2022-08-28T06:48:57.842Z,15.47
2022-08-28T06:49:57.821Z,15.15
2022-08-28T06:50:57.830Z,15.58
2022-08-28T06:51:57.794Z,15.15
2022-08-28T06:52:57.781Z,15.47
2022-08-28T06:53:57.756Z,15.68
2022-08-28T06:54:57.755Z,15.25
2022-08-28T06:55:57.745Z,15.47
2022-08-28T06:56:57.730Z,15.68
2022-08-28T06:57:57.706Z,15.58
2022-08-28T06:58:57.698Z,15.58
2022-08-28T06:59:57.667Z,15.47
2022-08-28T07:01:02.762Z,15.04
2022-08-28T07:01:58.774Z,15.58
2022-08-28T07:02:57.686Z,15.47
2022-08-28T07:03:57.624Z,15.58
2022-08-28T07:04:57.615Z,15.15
2022-08-28T07:05:57.600Z,15.04
2022-08-28T07:06:58.250Z,15.68
2022-08-28T07:07:57.598Z,15.25
2022-08-28T07:08:57.562Z,15.68
2022-08-28T07:09:57.540Z,15.04
2022-08-28T07:10:57.540Z,15.25
2022-08-28T07:11:58.400Z,15.68
2022-08-28T07:12:57.530Z,15.47
2022-08-28T07:13:58.201Z,15.68
2022-08-28T07:15:00.882Z,15.68
2022-08-28T07:15:58.585Z,15.15
2022-08-28T07:16:58.122Z,15.36
2022-08-28T07:17:57.442Z,15.47
2022-08-28T07:18:57.423Z,15.47
2022-08-28T07:19:57.399Z,15.58
2022-08-28T07:20:57.393Z,15.25
2022-08-28T07:21:57.382Z,15.04
2022-08-28T07:22:59.502Z,14.93
2022-08-28T07:23:57.350Z,15.68
2022-08-28T07:24:57.341Z,15.25
2022-08-28T07:25:57.335Z,15.47
2022-08-28T07:26:57.312Z,15.79
2022-08-28T07:27:57.308Z,15.04
2022-08-28T07:29:09.342Z,15.15
2022-08-28T07:29:58.277Z,15.15
2022-08-28T07:30:57.364Z,15.25
2022-08-28T07:31:57.272Z,15.36
2022-08-28T07:32:57.245Z,15.25
2022-08-28T07:33:57.226Z,15.68
2022-08-28T07:34:57.220Z,15.68
2022-08-28T07:35:57.213Z,15.36
2022-08-28T07:36:57.208Z,15.25
2022-08-28T07:37:57.419Z,15.15
2022-08-28T07:38:57.186Z,15.68
2022-08-28T07:39:57.184Z,15.15
2022-08-28T07:40:58.086Z,15.58
2022-08-28T07:41:57.119Z,15.58
2022-08-28T07:42:57.142Z,15.15
2022-08-28T07:43:57.091Z,15.47
2022-08-28T07:44:57.077Z,15.25
2022-08-28T07:45:57.115Z,15.58
2022-08-28T07:46:57.052Z,15.25
2022-08-28T07:47:57.043Z,15.25
2022-08-28T07:48:57.035Z,15.25
2022-08-28T07:49:57.004Z,15.68
2022-08-28T07:50:57.011Z,15.36
2022-08-28T07:51:57.006Z,15.25
2022-08-28T07:52:56.974Z,15.04
2022-08-28T07:53:56.978Z,14.72
2022-08-28T07:54:56.940Z,15.36
2022-08-28T07:55:56.936Z,15.25
2022-08-28T07:56:57.772Z,15.15
2022-08-28T07:57:56.924Z,15.25
2022-08-28T07:58:56.883Z,15.25
2022-08-28T07:59:56.880Z,15.36
2022-08-28T08:00:56.858Z,15.25
2022-08-28T08:01:56.934Z,15.68
2022-08-28T08:02:56.835Z,15.15
2022-08-28T08:04:01.138Z,15.58
2022-08-28T08:04:57.800Z,15.58
2022-08-28T08:05:56.808Z,15.79
2022-08-28T08:06:58.282Z,15.58
2022-08-28T08:07:56.766Z,15.15
2022-08-28T08:08:56.754Z,15.15
2022-08-28T08:09:56.741Z,14.82
2022-08-28T08:10:56.734Z,14.82
2022-08-28T08:11:56.715Z,15.47
2022-08-28T08:12:56.692Z,15.79
2022-08-28T08:13:56.689Z,15.36
2022-08-28T08:14:56.674Z,15.04
2022-08-28T08:15:56.707Z,15.25
2022-08-28T08:16:56.900Z,14.93
2022-08-28T08:17:56.649Z,15.04
2022-08-28T08:18:56.644Z,15.25
2022-08-28T08:19:56.601Z,15.15
2022-08-28T08:20:56.605Z,15.58
2022-08-28T08:21:56.576Z,15.36
2022-08-28T08:22:56.556Z,15.04
2022-08-28T08:23:56.602Z,15.25
2022-08-28T08:24:56.550Z,14.93
2022-08-28T08:25:56.576Z,15.36
2022-08-28T08:26:59.597Z,15.15
2022-08-28T08:27:56.520Z,15.25
2022-08-28T08:28:56.479Z,15.25
2022-08-28T08:29:56.481Z,15.15
2022-08-28T08:30:56.514Z,14.82
2022-08-28T08:31:56.457Z,15.15
2022-08-28T08:32:56.425Z,15.36
2022-08-28T08:33:56.418Z,14.72
2022-08-28T08:34:56.410Z,15.36
2022-08-28T08:35:56.407Z,14.93
2022-08-28T08:36:56.371Z,15.79
2022-08-28T08:37:59.612Z,15.25
2022-08-28T08:38:59.318Z,15.04
2022-08-28T08:39:56.403Z,15.58
2022-08-28T08:40:56.344Z,15.25
2022-08-28T08:41:56.322Z,15.25
2022-08-28T08:42:56.303Z,15.25
2022-08-28T08:43:56.296Z,15.25
2022-08-28T08:44:56.275Z,15.36
2022-08-28T08:45:56.306Z,14.93
2022-08-28T08:46:56.260Z,15.15
2022-08-28T08:47:56.235Z,15.15
2022-08-28T08:48:56.216Z,15.79
2022-08-28T08:49:56.209Z,15.68
2022-08-28T08:50:56.196Z,14.93
2022-08-28T08:51:56.212Z,15.36
2022-08-28T08:52:56.166Z,15.47
2022-08-28T08:53:56.151Z,15.15
2022-08-28T08:54:59.367Z,14.93
2022-08-28T08:55:56.131Z,15.15
2022-08-28T08:56:56.109Z,15.15
2022-08-28T08:57:56.106Z,14.72
2022-08-28T08:58:56.077Z,15.25
2022-08-28T08:59:56.071Z,14.72
2022-08-28T09:00:56.071Z,15.25
2022-08-28T09:01:56.118Z,15.25
2022-08-28T09:02:56.137Z,15.25
2022-08-28T09:03:56.089Z,15.36
2022-08-28T09:04:56.028Z,15.25
2022-08-28T09:05:56.023Z,15.25
2022-08-28T09:06:55.987Z,14.72
2022-08-28T09:07:55.973Z,14.82
2022-08-28T09:08:55.962Z,15.25
2022-08-28T09:09:55.963Z,14.93
2022-08-28T09:10:56.193Z,14.82
2022-08-28T09:11:57.026Z,15.36
2022-08-28T09:12:55.904Z,15.36
2022-08-28T09:13:55.886Z,15.15
2022-08-28T09:14:55.894Z,14.72
2022-08-28T09:15:55.946Z,15.15
2022-08-28T09:16:55.841Z,14.82
2022-08-28T09:17:56.081Z,15.04
2022-08-28T09:18:55.816Z,15.36
2022-08-28T09:19:55.816Z,15.25
2022-08-28T09:20:55.786Z,14.93
2022-08-28T09:21:55.786Z,15.15
2022-08-28T09:22:55.767Z,15.25
2022-08-28T09:23:55.754Z,15.15
2022-08-28T09:24:55.747Z,14.93
2022-08-28T09:25:55.747Z,14.82
2022-08-28T09:26:55.719Z,15.47
2022-08-28T09:27:55.709Z,15.04
2022-08-28T09:28:55.700Z,15.15
2022-08-28T09:29:55.680Z,15.15
2022-08-28T09:30:55.705Z,15.25
2022-08-28T09:31:55.651Z,14.93
2022-08-28T09:32:55.628Z,15.47
2022-08-28T09:33:55.621Z,15.36
2022-08-28T09:34:55.610Z,15.25
2022-08-28T09:35:55.593Z,15.58
2022-08-28T09:36:55.580Z,15.68
2022-08-28T09:37:55.570Z,15.15
2022-08-28T09:38:55.553Z,14.93
2022-08-28T09:39:55.603Z,15.36
2022-08-28T09:40:55.532Z,15.36
2022-08-28T09:41:55.525Z,15.36
2022-08-28T09:42:55.513Z,15.15
2022-08-28T09:43:55.497Z,15.25
2022-08-28T09:44:55.481Z,14.72
2022-08-28T09:45:55.527Z,15.25
2022-08-28T09:46:55.707Z,14.72
2022-08-28T09:47:55.469Z,15.36
2022-08-28T09:48:55.417Z,14.82
2022-08-28T09:49:55.426Z,15.25
2022-08-28T09:50:55.398Z,14.82
2022-08-28T09:51:55.395Z,15.15
2022-08-28T09:52:55.378Z,15.36
2022-08-28T09:53:55.371Z,14.82
2022-08-28T09:54:55.355Z,14.72
2022-08-28T09:55:55.337Z,15.47
2022-08-28T09:56:55.330Z,15.15
2022-08-28T09:57:55.318Z,14.93
2022-08-28T09:58:55.301Z,14.82
2022-08-28T09:59:55.281Z,15.15
2022-08-28T10:00:55.263Z,15.68
2022-08-28T10:01:55.356Z,15.15
2022-08-28T10:02:55.237Z,15.04
2022-08-28T10:03:55.258Z,15.15
2022-08-28T10:04:56.217Z,15.15
2022-08-28T10:05:55.203Z,15.15
2022-08-28T10:06:55.180Z,15.36
2022-08-28T10:07:55.175Z,14.82
2022-08-28T10:08:55.151Z,15.25
2022-08-28T10:09:55.165Z,15.15
2022-08-28T10:10:55.144Z,15.25
2022-08-28T10:11:55.115Z,15.36
2022-08-28T10:12:55.104Z,14.72
2022-08-28T10:13:55.115Z,14.72
2022-08-28T10:14:55.327Z,15.25
2022-08-28T10:15:55.117Z,14.72
2022-08-28T10:16:55.048Z,15.47
2022-08-28T10:17:55.050Z,15.25
2022-08-28T10:18:55.024Z,15.15
2022-08-28T10:19:55.027Z,15.15
2022-08-28T10:20:54.996Z,15.15
2022-08-28T10:21:54.987Z,15.25
2022-08-28T10:22:54.971Z,14.72
2022-08-28T10:23:55.908Z,15.25
2022-08-28T10:24:54.951Z,14.82
2022-08-28T10:25:54.938Z,15.36
2022-08-28T10:26:54.913Z,15.15
2022-08-28T10:27:54.902Z,15.15
2022-08-28T10:28:54.905Z,15.25
2022-08-28T10:29:55.843Z,14.72
2022-08-28T10:30:54.960Z,15.36
2022-08-28T10:31:54.854Z,15.36
2022-08-28T10:32:54.847Z,14.82
2022-08-28T10:33:54.845Z,14.82
2022-08-28T10:34:54.826Z,14.82
2022-08-28T10:35:54.835Z,15.15
2022-08-28T10:36:54.784Z,15.15
2022-08-28T10:37:54.776Z,14.82
2022-08-28T10:38:54.777Z,14.93
2022-08-28T10:39:54.827Z,14.82
2022-08-28T10:40:54.735Z,15.04
2022-08-28T10:41:54.729Z,15.04
2022-08-28T10:42:54.700Z,14.82
2022-08-28T10:43:54.688Z,15.25
2022-08-28T10:44:54.689Z,15.15
2022-08-28T10:45:54.699Z,15.25
2022-08-28T10:46:54.646Z,15.04
2022-08-28T10:47:54.640Z,15.68
2022-08-28T10:48:54.621Z,15.90
2022-08-28T10:49:54.618Z,15.68
2022-08-28T10:50:54.602Z,15.15
2022-08-28T10:51:54.592Z,15.25
2022-08-28T10:52:54.569Z,15.90
2022-08-28T10:53:54.562Z,16.01
2022-08-28T10:54:54.551Z,16.01
2022-08-28T10:55:54.533Z,15.58
2022-08-28T10:56:56.159Z,16.11
2022-08-28T10:57:54.507Z,15.79
2022-08-28T10:58:54.492Z,16.01
2022-08-28T10:59:54.510Z,16.44
2022-08-28T11:00:54.512Z,16.54
2022-08-28T11:01:54.523Z,16.87
2022-08-28T11:02:54.475Z,16.44
2022-08-28T11:03:54.468Z,16.33
2022-08-28T11:04:58.337Z,16.65
2022-08-28T11:05:54.408Z,16.33
2022-08-28T11:06:54.383Z,16.87
2022-08-28T11:07:54.380Z,16.76
2022-08-28T11:08:54.359Z,16.01
2022-08-28T11:09:54.360Z,15.90
2022-08-28T11:10:54.341Z,16.44
2022-08-28T11:11:56.494Z,15.90
2022-08-28T11:12:55.319Z,16.01
2022-08-28T11:13:54.292Z,16.44
2022-08-28T11:14:54.289Z,16.44
2022-08-28T11:15:54.503Z,16.11
2022-08-28T11:16:54.292Z,16.01
2022-08-28T11:17:54.247Z,16.44
2022-08-28T11:18:54.225Z,16.54
2022-08-28T11:19:54.230Z,16.44
2022-08-28T11:20:54.193Z,16.76
2022-08-28T11:21:54.196Z,16.54
2022-08-28T11:22:55.134Z,16.44
2022-08-28T11:23:54.184Z,16.44
2022-08-28T11:24:56.918Z,16.22
2022-08-28T11:25:55.149Z,16.33
2022-08-28T11:26:54.124Z,16.54
2022-08-28T11:27:54.108Z,16.44
2022-08-28T11:28:54.117Z,16.76
2022-08-28T11:29:54.107Z,16.44
2022-08-28T11:30:54.083Z,16.76
2022-08-28T11:31:54.059Z,16.65
2022-08-28T11:32:54.065Z,16.44
2022-08-28T11:33:54.030Z,16.76
2022-08-28T11:34:54.020Z,16.76
2022-08-28T11:35:54.000Z,16.33
2022-08-28T11:36:53.991Z,16.33
2022-08-28T11:37:53.971Z,16.44
2022-08-28T11:38:53.961Z,16.87
2022-08-28T11:39:54.017Z,16.54
2022-08-28T11:40:53.946Z,16.44
2022-08-28T11:41:53.931Z,16.65
2022-08-28T11:42:53.913Z,16.33
2022-08-28T11:43:53.910Z,16.65
2022-08-28T11:44:53.883Z,16.54
2022-08-28T11:45:53.916Z,16.44
2022-08-28T11:46:53.857Z,16.65
2022-08-28T11:47:53.847Z,16.44
2022-08-28T11:48:53.846Z,16.65
2022-08-28T11:49:53.826Z,16.44
2022-08-28T11:50:53.806Z,16.76
2022-08-28T11:51:53.798Z,16.65
2022-08-28T11:52:53.776Z,16.76
2022-08-28T11:53:53.768Z,16.33
2022-08-28T11:54:54.004Z,16.11
2022-08-28T11:55:53.738Z,16.22
2022-08-28T11:56:53.729Z,16.01
2022-08-28T11:57:53.719Z,16.01
2022-08-28T11:58:53.699Z,16.22
2022-08-28T11:59:53.690Z,16.76
2022-08-28T12:00:53.671Z,16.65
2022-08-28T12:01:53.665Z,16.44
2022-08-28T12:02:53.676Z,16.54
2022-08-28T12:03:53.728Z,16.33
2022-08-28T12:04:53.616Z,16.54
2022-08-28T12:05:53.609Z,16.44
2022-08-28T12:06:53.613Z,16.54
2022-08-28T12:07:53.584Z,16.65
2022-08-28T12:08:53.573Z,16.54
2022-08-28T12:09:53.546Z,17.08
2022-08-28T12:10:53.552Z,16.76
2022-08-28T12:11:53.528Z,17.62
2022-08-28T12:12:53.563Z,16.87
2022-08-28T12:13:53.506Z,17.62
2022-08-28T12:14:53.487Z,17.40
2022-08-28T12:15:53.505Z,17.51
2022-08-28T12:16:53.457Z,17.51
2022-08-28T12:17:53.449Z,17.19
2022-08-28T12:18:53.448Z,17.08
2022-08-28T12:19:55.884Z,17.29
2022-08-28T12:20:53.411Z,16.65
2022-08-28T12:21:53.400Z,16.76
2022-08-28T12:22:53.402Z,17.29
2022-08-28T12:23:56.102Z,17.29
2022-08-28T12:24:54.568Z,17.62
2022-08-28T12:25:53.342Z,17.29
2022-08-28T12:26:53.338Z,17.40
2022-08-28T12:27:53.319Z,17.29
2022-08-28T12:28:53.317Z,16.87
2022-08-28T12:29:53.293Z,17.08
2022-08-28T12:30:53.345Z,17.08
2022-08-28T12:31:53.264Z,16.76
2022-08-28T12:32:53.255Z,16.65
2022-08-28T12:33:53.241Z,16.76
2022-08-28T12:34:53.232Z,16.76
2022-08-28T12:35:53.215Z,16.65
2022-08-28T12:36:53.205Z,16.44
2022-08-28T12:37:53.426Z,16.44
2022-08-28T12:38:53.182Z,16.76
2022-08-28T12:39:53.197Z,17.29
2022-08-28T12:40:53.148Z,16.44
2022-08-28T12:41:53.128Z,16.87
2022-08-28T12:42:55.226Z,16.44
2022-08-28T12:43:53.119Z,16.44
2022-08-28T12:44:53.096Z,16.87
2022-08-28T12:45:53.129Z,16.87
2022-08-28T12:46:53.070Z,16.44
2022-08-28T12:47:53.050Z,16.54
2022-08-28T12:48:53.058Z,16.33
2022-08-28T12:49:53.039Z,16.44
2022-08-28T12:50:53.021Z,16.44
2022-08-28T12:51:53.011Z,16.44
2022-08-28T12:52:52.997Z,16.33
2022-08-28T12:53:52.994Z,16.11